Sweeney, South Dakota
Current Conditions -  °F | °C
As of 4:53 PM on Saturday 20 Dec 2014 (Local Time) from KPIR Reporting Station
Clear Clear  
Wind Chill: 18°   Ceiling: Unl
Heat Index: 25°   Visibility: 7mi
Dew Point: 22°   Wind: 6mph
Humidity: 88%   Direction: 110°ESE
Pressure: 29.89"   Gusts: NA
Location:  43.909°N, 100.128°W
Report Text: KPIR 202253Z AUTO 11005KT 7SM CLR M04/M06 A2989 RMK AO2 SLP148 T10391056
Loading
Personal Weather Stations






























Interactive Weather Map New forecast layout! Learn more

10-Day Weather Forecast

Advertisements
Track Severe Weather on mobile